Wroughton, United Kingdom
Current Conditions -  °F | °C
As of 11:48 PM on Monday 20 Oct 2014 (Local Time) from EGVA Reporting Station
Broken Clouds Broken Clouds  
Wind Chill: 52°   Ceiling: 4900
Heat Index: 52°   Visibility: 6mi
Dew Point: 48°   Wind: 14mph
Humidity: 88%   Direction: 220°SW
Pressure: 29.82"   Gusts: NA
Location:  51.52°N, 1.8°W
Report Text: EGVA 202248Z AUTO 22012KT 9999 BKN049 BKN170 11/09 A2982 RMK AO2
Loading
Personal Weather Stations






























Interactive Weather Map
Tropical Storm Tracking
New forecast layout! Learn more

10-Day Weather Forecast

Advertisements
Track Severe Weather on mobile